Time,TemperatureF,DewpointF,PressureIn,WindDirection,WindDirectionDegrees,WindSpeedMPH,WindSpeedGustMPH,Humidity,HourlyPrecipIn,Conditions,Clouds,dailyrainin,SoftwareType,DateUTC
2013-11-05 00:03:00,43.8,37.0,30.27,SW,227,3.0,-999.0,78,-99.99,,,0.00,weatherlink.com 1.10,2013-11-05 05:03:00,
2013-11-05 00:18:00,44.1,38.0,30.27,WSW,238,4.0,-999.0,78,-99.99,,,0.00,weatherlink.com 1.10,2013-11-05 05:18:00,
2013-11-05 00:34:00,44.7,38.0,30.27,SW,227,5.0,-999.0,78,-99.99,,,0.00,weatherlink.com 1.10,2013-11-05 05:34:00,
2013-11-05 00:49:00,45.1,39.0,30.27,WSW,252,6.0,-999.0,78,-99.99,,,0.00,weatherlink.com 1.10,2013-11-05 05:49:00,
2013-11-05 01:04:00,47.3,40.0,30.27,WSW,246,13.0,-999.0,75,-99.99,,,0.00,weatherlink.com 1.10,2013-11-05 06:04:00,
2013-11-05 01:19:00,47.6,40.0,30.27,WSW,251,7.0,-999.0,75,-99.99,,,0.00,weatherlink.com 1.10,2013-11-05 06:19:00,
2013-11-05 01:34:00,47.3,40.0,30.27,WSW,247,7.0,-999.0,75,-99.99,,,0.00,weatherlink.com 1.10,2013-11-05 06:34:00,
2013-11-05 01:49:00,47.4,41.0,30.27,West,279,7.0,-999.0,77,-99.99,,,0.00,weatherlink.com 1.10,2013-11-05 06:49:00,
2013-11-05 02:04:00,47.6,41.0,30.27,WSW,253,11.0,-999.0,77,-99.99,,,0.00,weatherlink.com 1.10,2013-11-05 07:04:00,
2013-11-05 02:19:00,47.7,40.0,30.27,West,277,5.0,-999.0,76,-99.99,,,0.00,weatherlink.com 1.10,2013-11-05 07:19:00,
2013-11-05 02:34:00,47.4,41.0,30.27,WSW,243,8.0,-999.0,77,-99.99,,,0.00,weatherlink.com 1.10,2013-11-05 07:34:00,
2013-11-05 02:49:00,46.8,40.0,30.27,WSW,257,5.0,-999.0,78,-99.99,,,0.00,weatherlink.com 1.10,2013-11-05 07:49:00,
2013-11-05 03:04:00,46.7,41.0,30.27,WSW,254,8.0,-999.0,79,-99.99,,,0.00,weatherlink.com 1.10,2013-11-05 08:04:00,
2013-11-05 03:19:00,46.7,41.0,30.27,WNW,294,4.0,-999.0,79,-99.99,,,0.00,weatherlink.com 1.10,2013-11-05 08:19:00,
2013-11-05 03:34:00,46.5,41.0,30.27,WSW,252,6.0,-999.0,80,-99.99,,,0.00,weatherlink.com 1.10,2013-11-05 08:34:00,
2013-11-05 03:49:00,46.6,41.0,30.27,West,261,6.0,-999.0,80,-99.99,,,0.00,weatherlink.com 1.10,2013-11-05 08:49:00,
2013-11-05 04:04:00,46.8,41.0,30.27,SW,223,6.0,-999.0,80,-99.99,,,0.00,weatherlink.com 1.10,2013-11-05 09:04:00,
2013-11-05 04:19:00,46.9,41.0,30.27,West,267,4.0,-999.0,81,-99.99,,,0.00,weatherlink.com 1.10,2013-11-05 09:19:00,
2013-11-05 04:49:00,47.4,42.0,30.28,WSW,246,5.0,-999.0,80,-99.99,,,0.00,weatherlink.com 1.10,2013-11-05 09:49:00,
2013-11-05 05:04:00,47.2,42.0,30.28,WSW,256,6.0,-999.0,81,-99.99,,,0.00,weatherlink.com 1.10,2013-11-05 10:04:00,
2013-11-05 05:19:00,47.0,41.0,30.28,WSW,256,5.0,-999.0,81,-99.99,,,0.00,weatherlink.com 1.10,2013-11-05 10:19:00,
2013-11-05 05:34:00,47.0,41.0,30.28,WSW,246,8.0,-999.0,81,-99.99,,,0.00,weatherlink.com 1.10,2013-11-05 10:34:00,
2013-11-05 05:49:00,47.0,42.0,30.28,WSW,254,6.0,-999.0,82,-99.99,,,0.00,weatherlink.com 1.10,2013-11-05 10:49:00,
2013-11-05 06:04:00,47.0,42.0,30.28,WSW,244,6.0,-999.0,82,-99.99,,,0.00,weatherlink.com 1.10,2013-11-05 11:04:00,
2013-11-05 06:19:00,47.0,42.0,30.29,WSW,242,6.0,-999.0,82,-99.99,,,0.00,weatherlink.com 1.10,2013-11-05 11:19:00,
2013-11-05 06:34:00,47.0,42.0,30.29,WSW,254,5.0,-999.0,82,-99.99,,,0.00,weatherlink.com 1.10,2013-11-05 11:34:00,
2013-11-05 06:49:00,46.9,42.0,30.30,West,269,6.0,-999.0,82,-99.99,,,0.00,weatherlink.com 1.10,2013-11-05 11:49:00,
2013-11-05 07:04:00,47.0,42.0,30.30,WSW,255,5.0,-999.0,82,-99.99,,,0.00,weatherlink.com 1.10,2013-11-05 12:04:00,
2013-11-05 07:19:00,47.0,42.0,30.30,West,263,4.0,-999.0,82,-99.99,,,0.00,weatherlink.com 1.10,2013-11-05 12:19:00,
2013-11-05 07:34:00,47.1,42.0,30.30,West,260,3.0,-999.0,82,-99.99,,,0.00,weatherlink.com 1.10,2013-11-05 12:34:00,
2013-11-05 07:49:00,47.1,42.0,30.30,WSW,254,3.0,-999.0,82,-99.99,,,0.00,weatherlink.com 1.10,2013-11-05 12:49:00,
2013-11-05 08:04:00,47.1,42.0,30.31,WSW,255,5.0,-999.0,82,-99.99,,,0.00,weatherlink.com 1.10,2013-11-05 13:04:00,
2013-11-05 08:19:00,47.2,42.0,30.31,WSW,255,3.0,-999.0,83,-99.99,,,0.00,weatherlink.com 1.10,2013-11-05 13:19:00,
2013-11-05 08:34:00,47.2,42.0,30.30,WSW,251,2.0,-999.0,83,-99.99,,,0.00,weatherlink.com 1.10,2013-11-05 13:34:00,
2013-11-05 08:49:00,47.3,42.0,30.30,WSW,240,3.0,-999.0,83,-99.99,,,0.00,weatherlink.com 1.10,2013-11-05 13:49:00,
2013-11-05 09:04:00,47.5,43.0,30.31,WSW,253,3.0,-999.0,83,-99.99,,,0.00,weatherlink.com 1.10,2013-11-05 14:04:00,
2013-11-05 09:19:00,47.8,43.0,30.31,WSW,257,5.0,-999.0,82,-99.99,,,0.00,weatherlink.com 1.10,2013-11-05 14:19:00,
2013-11-05 09:34:00,47.9,43.0,30.31,NW,323,3.0,-999.0,82,-99.99,,,0.00,weatherlink.com 1.10,2013-11-05 14:34:00,
2013-11-05 09:49:00,48.2,43.0,30.31,WSW,248,3.0,-999.0,81,-99.99,,,0.00,weatherlink.com 1.10,2013-11-05 14:49:00,
2013-11-05 10:04:00,48.6,43.0,30.31,WSW,247,5.0,-999.0,81,-99.99,,,0.00,weatherlink.com 1.10,2013-11-05 15:04:00,
2013-11-05 10:19:00,49.1,43.0,30.31,WSW,253,4.0,-999.0,80,-99.99,,,0.00,weatherlink.com 1.10,2013-11-05 15:19:00,
2013-11-05 10:34:00,49.6,44.0,30.31,WSW,248,7.0,-999.0,80,-99.99,,,0.00,weatherlink.com 1.10,2013-11-05 15:34:00,
2013-11-05 10:49:00,49.9,44.0,30.31,WSW,257,3.0,-999.0,79,-99.99,,,0.00,weatherlink.com 1.10,2013-11-05 15:49:00,
2013-11-05 11:04:00,50.2,44.0,30.31,WSW,248,4.0,-999.0,79,-99.99,,,0.00,weatherlink.com 1.10,2013-11-05 16:04:00,
2013-11-05 11:19:00,50.7,44.0,30.31,SW,227,7.0,-999.0,79,-99.99,,,0.00,weatherlink.com 1.10,2013-11-05 16:19:00,
2013-11-05 11:34:00,51.5,45.0,30.31,SW,227,3.0,-999.0,77,-99.99,,,0.00,weatherlink.com 1.10,2013-11-05 16:34:00,
2013-11-05 11:49:00,52.2,45.0,30.30,SW,232,6.0,-999.0,76,-99.99,,,0.00,weatherlink.com 1.10,2013-11-05 16:49:00,
2013-11-05 12:04:00,52.3,45.0,30.30,SW,235,10.0,-999.0,75,-99.99,,,0.00,weatherlink.com 1.10,2013-11-05 17:04:00,
2013-11-05 12:19:00,52.7,45.0,30.29,WSW,244,8.0,-999.0,75,-99.99,,,0.00,weatherlink.com 1.10,2013-11-05 17:19:00,
2013-11-05 12:34:00,52.9,45.0,30.29,WSW,244,8.0,-999.0,75,-99.99,,,0.00,weatherlink.com 1.10,2013-11-05 17:34:00,
2013-11-05 12:49:00,52.8,45.0,30.29,WSW,253,5.0,-999.0,75,-99.99,,,0.00,weatherlink.com 1.10,2013-11-05 17:49:00,
2013-11-05 13:04:00,52.9,45.0,30.27,WSW,255,2.0,-999.0,75,-99.99,,,0.00,weatherlink.com 1.10,2013-11-05 18:04:00,
2013-11-05 13:19:00,52.8,45.0,30.27,WSW,238,4.0,-999.0,76,-99.99,,,0.00,weatherlink.com 1.10,2013-11-05 18:19:00,
2013-11-05 13:35:00,52.6,45.0,30.26,WSW,251,5.0,-999.0,76,-99.99,,,0.00,weatherlink.com 1.10,2013-11-05 18:35:00,
2013-11-05 13:50:00,52.5,45.0,30.26,WSW,238,6.0,-999.0,76,-99.99,,,0.00,weatherlink.com 1.10,2013-11-05 18:50:00,
2013-11-05 14:05:00,52.6,45.0,30.26,SW,224,3.0,-999.0,76,-99.99,,,0.00,weatherlink.com 1.10,2013-11-05 19:05:00,
2013-11-05 14:20:00,52.6,46.0,30.26,WSW,240,7.0,-999.0,77,-99.99,,,0.00,weatherlink.com 1.10,2013-11-05 19:20:00,
2013-11-05 14:35:00,52.6,45.0,30.26,SW,219,3.0,-999.0,76,-99.99,,,0.00,weatherlink.com 1.10,2013-11-05 19:35:00,
2013-11-05 14:50:00,52.5,45.0,30.25,SW,234,6.0,-999.0,77,-99.99,,,0.00,weatherlink.com 1.10,2013-11-05 19:50:00,
2013-11-05 15:05:00,52.5,45.0,30.25,SW,230,5.0,-999.0,77,-99.99,,,0.00,weatherlink.com 1.10,2013-11-05 20:05:00,
2013-11-05 15:20:00,52.4,45.0,30.26,WSW,250,5.0,-999.0,77,-99.99,,,0.00,weatherlink.com 1.10,2013-11-05 20:20:00,
2013-11-05 15:35:00,52.4,46.0,30.26,SW,229,6.0,-999.0,78,-99.99,,,0.00,weatherlink.com 1.10,2013-11-05 20:35:00,
2013-11-05 15:50:00,52.3,46.0,30.26,WSW,240,3.0,-999.0,79,-99.99,,,0.00,weatherlink.com 1.10,2013-11-05 20:50:00,
2013-11-05 16:05:00,52.2,46.0,30.25,SW,236,5.0,-999.0,80,-99.99,,,0.00,weatherlink.com 1.10,2013-11-05 21:05:00,
2013-11-05 16:20:00,52.2,46.0,30.26,WSW,246,5.0,-999.0,80,-99.99,,,0.00,weatherlink.com 1.10,2013-11-05 21:20:00,
2013-11-05 16:35:00,52.1,46.0,30.25,SW,236,5.0,-999.0,81,-99.99,,,0.00,weatherlink.com 1.10,2013-11-05 21:35:00,
2013-11-05 16:50:00,52.2,47.0,30.24,WSW,241,5.0,-999.0,82,-99.99,,,0.00,weatherlink.com 1.10,2013-11-05 21:50:00,
2013-11-05 17:05:00,52.1,47.0,30.24,WSW,250,9.0,-999.0,83,-99.99,,,0.00,weatherlink.com 1.10,2013-11-05 22:05:00,
2013-11-05 17:20:00,52.0,47.0,30.23,SW,226,5.0,-999.0,84,-99.99,,,0.00,weatherlink.com 1.10,2013-11-05 22:20:00,
2013-11-05 17:35:00,51.9,47.0,30.23,SW,218,3.0,-999.0,84,-99.99,,,0.00,weatherlink.com 1.10,2013-11-05 22:35:00,
2013-11-05 17:50:00,51.9,48.0,30.23,WSW,251,5.0,-999.0,86,-99.99,,,0.00,weatherlink.com 1.10,2013-11-05 22:50:00,
2013-11-05 18:05:00,51.9,48.0,30.23,WSW,243,6.0,-999.0,86,-99.99,,,0.00,weatherlink.com 1.10,2013-11-05 23:05:00,
2013-11-05 18:20:00,51.7,48.0,30.23,WSW,238,4.0,-999.0,86,-99.99,,,0.00,weatherlink.com 1.10,2013-11-05 23:20:00,
2013-11-05 18:35:00,51.5,48.0,30.22,SW,218,7.0,-999.0,86,-99.99,,,0.00,weatherlink.com 1.10,2013-11-05 23:35:00,
2013-11-05 18:50:00,51.4,48.0,30.22,SW,219,5.0,-999.0,87,-99.99,,,0.00,weatherlink.com 1.10,2013-11-05 23:50:00,
2013-11-05 19:05:00,51.5,48.0,30.22,SW,236,5.0,-999.0,87,-99.99,,,0.00,weatherlink.com 1.10,2013-11-06 00:05:00,
2013-11-05 19:20:00,51.5,48.0,30.21,WSW,238,6.0,-999.0,87,-99.99,,,0.00,weatherlink.com 1.10,2013-11-06 00:20:00,
2013-11-05 19:35:00,51.3,48.0,30.21,WSW,241,5.0,-999.0,88,-99.99,,,0.00,weatherlink.com 1.10,2013-11-06 00:35:00,
2013-11-05 19:50:00,51.2,48.0,30.21,SW,227,5.0,-999.0,88,-99.99,,,0.00,weatherlink.com 1.10,2013-11-06 00:50:00,
2013-11-05 20:05:00,51.1,48.0,30.21,SW,215,8.0,-999.0,89,-99.99,,,0.00,weatherlink.com 1.10,2013-11-06 01:05:00,
2013-11-05 20:20:00,50.9,48.0,30.20,SW,223,8.0,-999.0,89,-99.99,,,0.00,weatherlink.com 1.10,2013-11-06 01:20:00,
2013-11-05 20:35:00,50.7,48.0,30.20,SW,223,7.0,-999.0,90,-99.99,,,0.00,weatherlink.com 1.10,2013-11-06 01:35:00,
2013-11-05 20:50:00,50.8,48.0,30.19,SSW,213,5.0,-999.0,90,-99.99,,,0.00,weatherlink.com 1.10,2013-11-06 01:50:00,
2013-11-05 21:05:00,50.8,48.0,30.19,SW,217,5.0,-999.0,90,-99.99,,,0.00,weatherlink.com 1.10,2013-11-06 02:05:00,
2013-11-05 21:20:00,51.0,48.0,30.18,SSW,212,8.0,-999.0,89,-99.99,,,0.00,weatherlink.com 1.10,2013-11-06 02:20:00,
2013-11-05 21:35:00,51.2,48.0,30.18,WSW,239,6.0,-999.0,89,-99.99,,,0.00,weatherlink.com 1.10,2013-11-06 02:35:00,
2013-11-05 21:50:00,51.4,48.0,30.18,SW,234,8.0,-999.0,88,-99.99,,,0.00,weatherlink.com 1.10,2013-11-06 02:50:00,
2013-11-05 22:05:00,51.6,48.0,30.17,SW,226,6.0,-999.0,86,-99.99,,,0.00,weatherlink.com 1.10,2013-11-06 03:05:00,
2013-11-05 22:20:00,51.8,48.0,30.16,SW,226,7.0,-999.0,85,-99.99,,,0.00,weatherlink.com 1.10,2013-11-06 03:20:00,
2013-11-05 22:35:00,51.9,47.0,30.15,SW,235,7.0,-999.0,84,-99.99,,,0.00,weatherlink.com 1.10,2013-11-06 03:35:00,
2013-11-05 22:50:00,52.2,47.0,30.15,SW,236,8.0,-999.0,82,-99.99,,,0.00,weatherlink.com 1.10,2013-11-06 03:50:00,
2013-11-05 23:05:00,52.4,47.0,30.14,WSW,249,8.0,-999.0,81,-99.99,,,0.00,weatherlink.com 1.10,2013-11-06 04:05:00,
2013-11-05 23:20:00,52.5,46.0,30.12,SW,231,8.0,-999.0,79,-99.99,,,0.00,weatherlink.com 1.10,2013-11-06 04:20:00,
2013-11-05 23:35:00,52.6,46.0,30.12,WSW,241,9.0,-999.0,78,-99.99,,,0.00,weatherlink.com 1.10,2013-11-06 04:35:00,
2013-11-05 23:50:00,52.9,46.0,30.12,West,273,9.0,-999.0,76,-99.99,,,0.00,weatherlink.com 1.10,2013-11-06 04:50:00,